createdAt,value
2018-06-12T00:00:27.483Z,43.04
2018-06-12T00:02:55.173Z,42.55
2018-06-12T00:05:22.894Z,43.12
2018-06-12T00:07:50.563Z,42.67
2018-06-12T00:10:18.246Z,43.50
2018-06-12T00:12:45.950Z,43.24
2018-06-12T00:15:13.653Z,43.47
2018-06-12T00:17:41.354Z,42.87
2018-06-12T00:20:09.116Z,43.48
2018-06-12T00:22:36.842Z,43.81
2018-06-12T00:25:04.573Z,44.31
2018-06-12T00:27:32.332Z,43.11
2018-06-12T00:30:00.034Z,43.70
2018-06-12T00:32:27.809Z,44.40
2018-06-12T00:34:55.597Z,44.00
2018-06-12T00:37:23.352Z,43.87
2018-06-12T00:39:51.056Z,44.20
2018-06-12T00:42:18.788Z,44.94
2018-06-12T00:44:46.474Z,44.63
2018-06-12T00:47:14.158Z,44.68
2018-06-12T00:49:41.860Z,44.70
2018-06-12T00:52:09.599Z,45.43
2018-06-12T00:54:37.289Z,44.55
2018-06-12T00:57:07.125Z,45.12
2018-06-12T00:59:34.823Z,45.01
2018-06-12T01:02:02.803Z,45.38
2018-06-12T01:04:30.513Z,45.63
2018-06-12T01:06:58.212Z,45.09
2018-06-12T01:09:25.905Z,45.93
2018-06-12T01:11:53.635Z,45.56
2018-06-12T01:14:21.325Z,45.18
2018-06-12T01:16:49.001Z,45.52
2018-06-12T01:19:16.705Z,45.71
2018-06-12T01:21:44.422Z,45.16
2018-06-12T01:24:12.110Z,45.60
2018-06-12T01:26:39.842Z,45.83
2018-06-12T01:29:07.528Z,45.54
2018-06-12T01:31:35.235Z,46.28
2018-06-12T01:34:03.066Z,45.63
2018-06-12T01:36:30.798Z,45.34
2018-06-12T01:38:58.540Z,45.86
2018-06-12T01:41:26.405Z,46.00
2018-06-12T01:43:54.091Z,45.53
2018-06-12T01:46:21.758Z,45.92
2018-06-12T01:48:49.433Z,45.65
2018-06-12T01:51:17.125Z,46.54
2018-06-12T01:53:44.835Z,46.08
2018-06-12T01:56:12.574Z,46.94
2018-06-12T01:58:40.259Z,45.97
2018-06-12T02:01:07.953Z,45.55
2018-06-12T02:03:35.741Z,46.45
2018-06-12T02:06:03.457Z,46.95
2018-06-12T02:08:31.125Z,46.38
2018-06-12T02:10:58.849Z,46.25
2018-06-12T02:13:26.534Z,47.13
2018-06-12T02:15:54.210Z,46.58
2018-06-12T02:18:21.901Z,46.53
2018-06-12T02:20:49.607Z,47.21
2018-06-12T02:23:17.318Z,46.70
2018-06-12T02:25:45.059Z,47.09
2018-06-12T02:28:12.737Z,47.17
2018-06-12T02:30:40.436Z,46.72
2018-06-12T02:33:08.155Z,46.33
2018-06-12T02:35:35.854Z,46.12
2018-06-12T02:38:03.574Z,46.67
2018-06-12T02:40:31.267Z,47.23
2018-06-12T02:42:58.942Z,46.62
2018-06-12T02:45:26.622Z,46.36
2018-06-12T02:47:54.341Z,46.39
2018-06-12T02:50:22.001Z,46.00
2018-06-12T02:52:49.673Z,46.58
2018-06-12T02:55:17.390Z,46.82
2018-06-12T02:57:45.079Z,47.42
2018-06-12T03:00:12.748Z,46.30
2018-06-12T03:02:40.476Z,47.60
2018-06-12T03:05:08.167Z,46.83
2018-06-12T03:07:35.857Z,46.63
2018-06-12T03:10:03.662Z,46.56
2018-06-12T03:12:31.368Z,47.10
2018-06-12T03:14:59.074Z,46.48
2018-06-12T03:17:26.762Z,47.28
2018-06-12T03:19:54.444Z,46.99
2018-06-12T03:22:22.120Z,47.03
2018-06-12T03:24:49.852Z,46.52
2018-06-12T03:27:17.552Z,47.47
2018-06-12T03:29:45.226Z,47.30
2018-06-12T03:32:12.936Z,46.53
2018-06-12T03:34:40.928Z,46.86
2018-06-12T03:37:08.682Z,46.36
2018-06-12T03:39:36.382Z,46.41
2018-06-12T03:42:04.170Z,46.37
2018-06-12T03:44:31.843Z,46.84
2018-06-12T03:46:59.541Z,46.25
2018-06-12T03:49:27.230Z,46.74
2018-06-12T03:51:54.903Z,46.54
2018-06-12T03:54:22.597Z,46.91
2018-06-12T03:56:50.321Z,46.84
2018-06-12T03:59:17.985Z,46.94
2018-06-12T04:01:45.825Z,45.98
2018-06-12T04:04:13.495Z,45.94
2018-06-12T04:06:41.194Z,45.92
2018-06-12T04:09:09.051Z,45.61
2018-06-12T04:11:36.855Z,45.62
2018-06-12T04:14:04.566Z,44.46
2018-06-12T04:16:32.258Z,43.78
2018-06-12T04:18:59.933Z,44.97
2018-06-12T04:21:27.618Z,45.00
2018-06-12T04:23:55.334Z,44.48
2018-06-12T04:26:23.017Z,45.36
2018-06-12T04:28:50.701Z,45.07
2018-06-12T04:31:18.404Z,44.50
2018-06-12T04:33:46.096Z,44.92
2018-06-12T04:36:13.799Z,44.45
2018-06-12T04:38:41.526Z,44.24
2018-06-12T04:41:09.221Z,44.61
2018-06-12T04:43:36.907Z,44.36
2018-06-12T04:46:04.657Z,44.28
2018-06-12T04:48:32.363Z,45.30
2018-06-12T04:51:00.041Z,45.00
2018-06-12T04:53:27.753Z,45.06
2018-06-12T04:55:55.430Z,44.63
2018-06-12T04:58:23.155Z,44.53
2018-06-12T05:00:50.875Z,44.77
2018-06-12T05:03:18.566Z,45.31
2018-06-12T05:05:46.481Z,44.59
2018-06-12T05:08:14.418Z,44.81
2018-06-12T05:10:42.127Z,44.64
2018-06-12T05:13:09.786Z,44.36
2018-06-12T05:15:37.487Z,44.77
2018-06-12T05:18:05.251Z,43.95
2018-06-12T05:20:32.933Z,44.17
2018-06-12T05:23:00.626Z,43.69
2018-06-12T05:25:28.317Z,42.86
2018-06-12T05:27:56.042Z,42.74
2018-06-12T05:30:23.734Z,43.47
2018-06-12T05:32:51.418Z,43.32
2018-06-12T05:35:19.099Z,43.19
2018-06-12T05:37:46.822Z,43.23
2018-06-12T05:40:14.478Z,44.37
2018-06-12T05:42:42.301Z,43.40
2018-06-12T05:45:09.981Z,44.19
2018-06-12T05:47:37.658Z,43.67
2018-06-12T05:50:05.338Z,44.06
2018-06-12T05:52:33.033Z,43.71
2018-06-12T05:55:00.716Z,43.54
2018-06-12T05:57:28.473Z,43.42
2018-06-12T05:59:56.198Z,43.31
2018-06-12T06:02:23.956Z,42.97
2018-06-12T06:04:51.626Z,43.41
2018-06-12T06:07:19.338Z,43.04
2018-06-12T06:09:47.016Z,42.99
2018-06-12T06:12:14.679Z,42.98
2018-06-12T06:14:42.363Z,42.73
2018-06-12T06:17:10.068Z,43.82
2018-06-12T06:19:37.816Z,43.00
2018-06-12T06:22:05.547Z,42.63
2018-06-12T06:24:33.337Z,42.39
2018-06-12T06:27:01.018Z,41.90
2018-06-12T06:29:28.881Z,42.23
2018-06-12T06:31:56.596Z,42.85
2018-06-12T06:34:24.265Z,42.42
2018-06-12T06:36:51.962Z,43.05
2018-06-12T06:39:19.673Z,42.38
2018-06-12T06:41:47.368Z,43.11
2018-06-12T06:44:15.078Z,43.38
2018-06-12T06:46:42.800Z,42.80
2018-06-12T06:49:10.510Z,42.49
2018-06-12T06:51:38.254Z,43.18
2018-06-12T06:54:05.982Z,43.59
2018-06-12T06:56:33.693Z,42.97
2018-06-12T06:59:01.402Z,42.91
2018-06-12T07:01:29.107Z,42.59
2018-06-12T07:03:56.793Z,43.24
2018-06-12T07:06:24.528Z,42.90
2018-06-12T07:08:52.217Z,43.18
2018-06-12T07:11:19.941Z,42.90
2018-06-12T07:13:47.812Z,43.48
2018-06-12T07:16:15.515Z,42.61
2018-06-12T07:18:43.233Z,43.02
2018-06-12T07:21:21.989Z,43.24
2018-06-12T07:23:49.706Z,43.33
2018-06-12T07:26:17.444Z,42.90
2018-06-12T07:28:45.237Z,42.18
2018-06-12T07:31:12.933Z,42.39
2018-06-12T07:33:40.699Z,42.41
2018-06-12T07:36:08.462Z,41.18
2018-06-12T07:38:36.177Z,41.87
2018-06-12T07:41:03.990Z,41.15
2018-06-12T07:43:31.789Z,41.85
2018-06-12T07:45:59.548Z,41.88
2018-06-12T07:48:27.275Z,41.38
2018-06-12T07:50:55.005Z,41.91
2018-06-12T07:53:22.697Z,41.28
2018-06-12T07:55:50.393Z,40.61
2018-06-12T07:58:18.124Z,41.38
2018-06-12T08:00:45.810Z,41.90
2018-06-12T08:03:13.503Z,41.21
2018-06-12T08:05:41.238Z,40.76
2018-06-12T08:08:08.944Z,40.81
2018-06-12T08:10:36.718Z,40.62
2018-06-12T08:13:04.482Z,40.79
2018-06-12T08:15:32.281Z,40.27
2018-06-12T08:17:59.989Z,40.76
2018-06-12T08:20:27.712Z,40.63
2018-06-12T08:22:55.387Z,40.50
2018-06-12T08:25:23.078Z,40.54
2018-06-12T08:27:50.836Z,40.34
2018-06-12T08:30:18.602Z,40.56
2018-06-12T08:32:46.262Z,40.41
2018-06-12T08:35:13.978Z,39.93
2018-06-12T08:37:41.662Z,40.29
2018-06-12T08:40:09.389Z,40.00
2018-06-12T08:42:37.813Z,39.81
2018-06-12T08:45:05.534Z,39.53
2018-06-12T08:47:33.338Z,40.91
2018-06-12T08:50:01.050Z,40.52
2018-06-12T08:52:28.735Z,40.06
2018-06-12T08:54:56.433Z,39.45
2018-06-12T08:57:24.154Z,39.92
2018-06-12T08:59:51.853Z,39.63
2018-06-12T09:02:19.887Z,39.29
2018-06-12T09:04:47.610Z,38.61
2018-06-12T09:07:15.313Z,39.04
2018-06-12T09:09:43.017Z,39.01
2018-06-12T09:12:10.713Z,38.81
2018-06-12T09:14:38.448Z,38.75
2018-06-12T09:17:06.153Z,38.80
2018-06-12T09:19:33.865Z,38.42
2018-06-12T09:22:01.565Z,38.56
2018-06-12T09:24:29.267Z,38.42
2018-06-12T09:26:56.999Z,38.86
2018-06-12T09:29:24.687Z,38.84
2018-06-12T09:31:52.383Z,38.63
2018-06-12T09:34:20.078Z,38.55
2018-06-12T09:36:47.808Z,39.15
2018-06-12T09:39:15.516Z,37.45
2018-06-12T09:41:43.252Z,37.97
2018-06-12T09:44:11.082Z,37.98
2018-06-12T09:46:38.850Z,37.49
2018-06-12T09:49:06.634Z,37.40
2018-06-12T09:51:34.329Z,37.28
2018-06-12T09:54:02.050Z,37.46
2018-06-12T09:56:29.790Z,36.62
2018-06-12T09:58:57.474Z,37.32
2018-06-12T10:01:25.176Z,37.23
2018-06-12T10:03:53.253Z,37.18
2018-06-12T10:06:20.913Z,37.26
2018-06-12T10:08:48.563Z,36.08
2018-06-12T10:11:16.247Z,36.90
2018-06-12T10:13:43.929Z,36.67
2018-06-12T10:16:11.613Z,36.63
2018-06-12T10:18:39.353Z,36.76
2018-06-12T10:21:07.073Z,37.31
2018-06-12T10:23:34.786Z,37.72
2018-06-12T10:26:02.526Z,37.33
2018-06-12T10:28:30.186Z,37.76
2018-06-12T10:30:57.877Z,37.00
2018-06-12T10:33:25.583Z,37.40
2018-06-12T10:35:53.235Z,37.30
2018-06-12T10:38:20.915Z,37.13
2018-06-12T10:40:48.624Z,36.56
2018-06-12T10:43:16.321Z,36.98
2018-06-12T10:45:43.998Z,37.07
2018-06-12T10:48:11.706Z,36.81
2018-06-12T10:50:39.362Z,36.74
2018-06-12T10:53:07.078Z,36.04
2018-06-12T10:55:34.762Z,35.63
2018-06-12T10:58:02.440Z,36.10
2018-06-12T11:00:30.117Z,35.67
2018-06-12T11:02:57.843Z,35.88
2018-06-12T11:05:28.610Z,36.28
2018-06-12T11:07:56.305Z,35.67
2018-06-12T11:10:23.982Z,36.52
2018-06-12T11:12:51.649Z,36.11
2018-06-12T11:15:19.516Z,36.31
2018-06-12T11:17:47.205Z,36.65
2018-06-12T11:20:14.877Z,35.72
2018-06-12T11:22:42.534Z,36.30
2018-06-12T11:25:10.210Z,35.26
2018-06-12T11:27:37.873Z,35.72
2018-06-12T11:30:05.604Z,35.97
2018-06-12T11:32:33.289Z,35.23
2018-06-12T11:35:00.983Z,36.31
2018-06-12T11:37:28.669Z,35.68
2018-06-12T11:39:56.360Z,36.04
2018-06-12T11:42:24.006Z,36.26
2018-06-12T11:44:51.690Z,35.64
2018-06-12T11:47:19.490Z,36.06
2018-06-12T11:49:47.118Z,35.35
2018-06-12T11:52:14.770Z,34.49
2018-06-12T11:54:42.459Z,35.06
2018-06-12T11:57:10.242Z,35.63
2018-06-12T11:59:37.887Z,34.62
2018-06-12T12:02:05.729Z,35.83
2018-06-12T12:04:33.389Z,35.80
2018-06-12T12:07:01.151Z,35.60
2018-06-12T12:09:28.817Z,35.72
2018-06-12T12:11:56.520Z,35.93
2018-06-12T12:14:24.198Z,35.01
2018-06-12T12:16:51.922Z,34.83
2018-06-12T12:19:19.587Z,35.12
2018-06-12T12:21:47.242Z,35.08
2018-06-12T12:24:14.934Z,35.04
2018-06-12T12:26:42.610Z,34.56
2018-06-12T12:29:10.312Z,34.39
2018-06-12T12:31:38.093Z,34.32
2018-06-12T12:34:05.813Z,33.78
2018-06-12T12:36:33.519Z,34.63
2018-06-12T12:39:01.210Z,34.23
2018-06-12T12:41:28.898Z,34.87
2018-06-12T12:43:56.608Z,34.32
2018-06-12T12:46:24.362Z,34.75
2018-06-12T12:48:52.060Z,34.42
2018-06-12T12:51:19.725Z,33.38
2018-06-12T12:53:47.431Z,34.55
2018-06-12T12:56:15.121Z,34.96
2018-06-12T12:58:42.837Z,35.21
2018-06-12T13:01:10.534Z,34.75
2018-06-12T13:03:38.201Z,34.42
2018-06-12T13:06:05.998Z,33.96
2018-06-12T13:08:33.790Z,33.87
2018-06-12T13:11:01.466Z,34.95
2018-06-12T13:13:29.118Z,35.41
2018-06-12T13:15:56.840Z,35.33
2018-06-12T13:18:24.554Z,35.49
2018-06-12T13:20:52.244Z,35.04
2018-06-12T13:23:19.925Z,34.55
2018-06-12T13:25:47.613Z,35.21
2018-06-12T13:28:15.277Z,35.36
2018-06-12T13:30:42.973Z,35.40
2018-06-12T13:33:11.081Z,35.09
2018-06-12T13:35:38.773Z,34.91
2018-06-12T13:38:06.492Z,35.23
2018-06-12T13:40:34.158Z,34.88
2018-06-12T13:43:01.841Z,34.51
2018-06-12T13:45:29.522Z,34.95
2018-06-12T13:47:57.157Z,33.56
2018-06-12T13:50:24.801Z,34.95
2018-06-12T13:52:52.487Z,34.56
2018-06-12T13:55:20.203Z,34.75
2018-06-12T13:57:48.054Z,35.15
2018-06-12T14:00:15.766Z,34.03
2018-06-12T14:02:43.430Z,34.76
2018-06-12T14:05:11.086Z,34.52
2018-06-12T14:07:38.816Z,34.31
2018-06-12T14:10:06.490Z,34.08
2018-06-12T14:12:34.214Z,34.82
2018-06-12T14:15:01.940Z,34.83
2018-06-12T14:17:29.623Z,33.97
2018-06-12T14:19:57.350Z,34.21
2018-06-12T14:22:25.030Z,34.13
2018-06-12T14:24:52.697Z,32.97
2018-06-12T14:27:20.346Z,33.84
2018-06-12T14:29:48.101Z,34.24
2018-06-12T14:32:15.769Z,33.62
2018-06-12T14:34:43.446Z,34.91
2018-06-12T14:37:11.170Z,34.41
2018-06-12T14:39:38.855Z,33.89
2018-06-12T14:42:06.517Z,33.39
2018-06-12T14:44:34.190Z,33.36
2018-06-12T14:47:01.843Z,34.07
2018-06-12T14:49:29.695Z,33.78
2018-06-12T14:51:57.519Z,33.64
2018-06-12T14:54:25.213Z,33.97
2018-06-12T14:56:52.934Z,33.40
2018-06-12T14:59:20.634Z,33.91
2018-06-12T15:01:48.394Z,32.95
2018-06-12T15:04:16.110Z,33.50
2018-06-12T15:06:43.786Z,33.95
2018-06-12T15:09:11.521Z,34.03
2018-06-12T15:11:39.186Z,33.93
2018-06-12T15:14:06.916Z,33.14
2018-06-12T15:16:34.628Z,33.50
2018-06-12T15:19:02.376Z,32.95
2018-06-12T15:21:30.070Z,33.45
2018-06-12T15:23:57.737Z,33.66
2018-06-12T15:26:25.402Z,34.09
2018-06-12T15:28:53.105Z,33.69
2018-06-12T15:31:20.782Z,33.63
2018-06-12T15:33:48.437Z,33.90
2018-06-12T15:36:16.118Z,34.63
2018-06-12T15:38:43.833Z,34.40
2018-06-12T15:41:11.556Z,34.95
2018-06-12T15:43:39.420Z,34.55
2018-06-12T15:46:07.238Z,34.84
2018-06-12T15:48:35.038Z,34.50
2018-06-12T15:51:02.921Z,34.51
2018-06-12T15:53:30.810Z,33.78
2018-06-12T15:55:58.585Z,34.14
2018-06-12T15:58:26.357Z,33.89
2018-06-12T16:00:54.148Z,33.64
2018-06-12T16:03:21.805Z,33.81
2018-06-12T16:05:49.533Z,33.85
2018-06-12T16:08:17.215Z,34.79
2018-06-12T16:10:44.921Z,34.84
2018-06-12T16:13:12.681Z,35.66
2018-06-12T16:15:40.392Z,35.05
2018-06-12T16:18:08.083Z,35.83
2018-06-12T16:20:35.906Z,35.86
2018-06-12T16:23:03.621Z,35.75
2018-06-12T16:25:31.430Z,35.03
2018-06-12T16:27:59.179Z,34.59
2018-06-12T16:30:26.910Z,34.46
2018-06-12T16:32:54.716Z,34.67
2018-06-12T16:35:22.541Z,34.49
2018-06-12T16:37:50.346Z,34.24
2018-06-12T16:40:18.198Z,33.52
2018-06-12T16:42:46.001Z,34.15
2018-06-12T16:45:13.797Z,34.25
2018-06-12T16:47:41.498Z,34.08
2018-06-12T16:50:09.395Z,34.26
2018-06-12T16:52:37.090Z,34.74
2018-06-12T16:55:04.887Z,34.55
2018-06-12T16:57:32.769Z,34.34
2018-06-12T17:00:00.490Z,33.86
2018-06-12T17:02:28.179Z,34.15
2018-06-12T17:04:55.942Z,34.38
2018-06-12T17:07:23.630Z,34.96
2018-06-12T17:09:51.321Z,34.44
2018-06-12T17:12:19.197Z,34.22
2018-06-12T17:14:46.889Z,34.03
2018-06-12T17:17:14.547Z,34.63
2018-06-12T17:19:42.262Z,34.53
2018-06-12T17:22:09.946Z,34.49
2018-06-12T17:24:37.630Z,34.59
2018-06-12T17:27:05.329Z,34.23
2018-06-12T17:29:33.025Z,35.18
2018-06-12T17:32:00.710Z,34.97
2018-06-12T17:34:28.452Z,34.89
2018-06-12T17:36:56.141Z,34.98
2018-06-12T17:39:23.805Z,35.00
2018-06-12T17:41:51.619Z,34.70
2018-06-12T17:44:19.306Z,35.10
2018-06-12T17:46:46.953Z,34.63
2018-06-12T17:49:14.673Z,35.11
2018-06-12T17:51:42.369Z,35.03
2018-06-12T17:54:10.026Z,35.16
2018-06-12T17:56:37.754Z,35.63
2018-06-12T17:59:05.402Z,35.72
2018-06-12T18:01:33.083Z,36.47
2018-06-12T18:04:00.894Z,35.71
2018-06-12T18:06:28.534Z,36.55
2018-06-12T18:08:56.186Z,36.29
2018-06-12T18:11:23.870Z,36.65
2018-06-12T18:13:51.583Z,36.93
2018-06-12T18:16:19.246Z,36.59
2018-06-12T18:18:46.932Z,37.51
2018-06-12T18:21:14.597Z,37.69
2018-06-12T18:23:42.282Z,37.03
2018-06-12T18:26:10.015Z,37.36
2018-06-12T18:28:37.774Z,37.23
2018-06-12T18:31:05.434Z,37.26
2018-06-12T18:33:33.145Z,37.52
2018-06-12T18:36:00.808Z,37.88
2018-06-12T18:38:28.493Z,37.82
2018-06-12T18:40:56.213Z,38.36
2018-06-12T18:43:23.869Z,38.01
2018-06-12T18:45:51.546Z,37.72
2018-06-12T18:48:19.259Z,37.61
2018-06-12T18:50:46.947Z,38.09
2018-06-12T18:53:14.654Z,37.87
2018-06-12T18:55:42.462Z,37.75
2018-06-12T18:58:10.149Z,37.94
2018-06-12T19:00:37.822Z,38.63
2018-06-12T19:03:05.541Z,39.12
2018-06-12T19:05:33.239Z,38.55
2018-06-12T19:08:00.974Z,38.49
2018-06-12T19:10:28.687Z,38.15
2018-06-12T19:12:56.497Z,37.98
2018-06-12T19:15:24.154Z,37.98
2018-06-12T19:17:51.853Z,38.04
2018-06-12T19:20:19.513Z,37.61
2018-06-12T19:22:47.223Z,37.88
2018-06-12T19:25:14.926Z,38.21
2018-06-12T19:27:42.590Z,38.76
2018-06-12T19:30:10.278Z,38.62
2018-06-12T19:32:37.970Z,39.14
2018-06-12T19:35:05.674Z,39.16
2018-06-12T19:37:33.337Z,39.18
2018-06-12T19:40:01.029Z,39.36
2018-06-12T19:42:28.670Z,40.38
2018-06-12T19:44:56.325Z,40.46
2018-06-12T19:47:24.034Z,39.91
2018-06-12T19:49:51.682Z,39.63
2018-06-12T19:52:19.454Z,39.76
2018-06-12T19:54:47.209Z,39.69
2018-06-12T19:57:14.886Z,40.11
2018-06-12T19:59:42.546Z,40.15
2018-06-12T20:02:10.273Z,40.06
2018-06-12T20:04:37.931Z,40.08
2018-06-12T20:07:05.673Z,40.05
2018-06-12T20:09:33.373Z,40.74
2018-06-12T20:12:01.038Z,40.41
2018-06-12T20:14:28.721Z,40.28
2018-06-12T20:16:56.390Z,40.55
2018-06-12T20:19:24.145Z,40.70
2018-06-12T20:21:51.873Z,40.95
2018-06-12T20:24:19.585Z,41.29
2018-06-12T20:26:47.658Z,40.96
2018-06-12T20:29:15.375Z,41.10
2018-06-12T20:31:43.046Z,41.31
2018-06-12T20:34:10.725Z,40.99
2018-06-12T20:36:38.372Z,41.22
2018-06-12T20:39:08.243Z,41.21
2018-06-12T20:41:36.374Z,41.15
2018-06-12T20:44:04.358Z,41.85
2018-06-12T20:46:32.040Z,41.51
2018-06-12T20:48:59.718Z,41.63
2018-06-12T20:51:27.775Z,41.62
2018-06-12T20:53:56.090Z,41.75
2018-06-12T20:56:23.752Z,42.02
2018-06-12T20:58:52.314Z,41.97
2018-06-12T21:01:20.070Z,42.20
2018-06-12T21:03:48.250Z,42.00
2018-06-12T21:06:15.934Z,42.60
2018-06-12T21:08:43.637Z,42.58
2018-06-12T21:11:11.312Z,42.56
2018-06-12T21:13:39.254Z,42.26
2018-06-12T21:16:06.966Z,42.78
2018-06-12T21:18:34.650Z,42.54
2018-06-12T21:21:02.523Z,42.52
2018-06-12T21:23:30.498Z,42.68
2018-06-12T21:25:59.422Z,42.51
2018-06-12T21:28:27.092Z,42.05
2018-06-12T21:30:54.830Z,42.77
2018-06-12T21:33:22.479Z,42.25
2018-06-12T21:35:50.215Z,42.34
2018-06-12T21:38:18.349Z,42.70
2018-06-12T21:40:46.014Z,42.70
2018-06-12T21:43:13.665Z,42.34
2018-06-12T21:45:41.495Z,42.92
2018-06-12T21:48:10.371Z,43.08
2018-06-12T21:50:38.553Z,43.31
2018-06-12T21:53:06.250Z,42.99
2018-06-12T21:55:33.917Z,43.41
2018-06-12T21:58:01.653Z,43.63
2018-06-12T22:00:32.291Z,43.47
2018-06-12T22:03:00.658Z,43.46
2018-06-12T22:05:28.502Z,44.53
2018-06-12T22:07:56.263Z,43.74
2018-06-12T22:10:24.170Z,44.55
2018-06-12T22:12:52.030Z,44.25
2018-06-12T22:15:19.686Z,44.18
2018-06-12T22:17:46.977Z,44.63
2018-06-12T22:20:15.004Z,44.99
2018-06-12T22:22:42.674Z,44.62
2018-06-12T22:25:10.358Z,45.02
2018-06-12T22:27:38.034Z,44.33
2018-06-12T22:30:05.798Z,44.54
2018-06-12T22:32:33.478Z,44.70
2018-06-12T22:35:01.144Z,44.47
2018-06-12T22:37:28.865Z,44.96
2018-06-12T22:39:56.502Z,45.61
2018-06-12T22:42:24.157Z,45.23
2018-06-12T22:44:51.857Z,44.71
2018-06-12T22:47:19.540Z,45.19
2018-06-12T22:49:47.201Z,45.23
2018-06-12T22:52:14.899Z,45.39
2018-06-12T22:54:42.648Z,45.10
2018-06-12T22:57:10.339Z,45.06
2018-06-12T22:59:38.033Z,46.16
2018-06-12T23:02:06.051Z,45.97
2018-06-12T23:04:33.714Z,45.27
2018-06-12T23:07:01.455Z,45.54
2018-06-12T23:09:29.125Z,45.75
2018-06-12T23:11:56.765Z,45.75
2018-06-12T23:14:24.465Z,45.97
2018-06-12T23:16:52.159Z,46.00
2018-06-12T23:19:19.871Z,46.38
2018-06-12T23:21:58.118Z,46.05
2018-06-12T23:24:25.911Z,46.39
2018-06-12T23:26:53.578Z,45.95
2018-06-12T23:29:21.296Z,45.48
2018-06-12T23:31:48.978Z,45.96
2018-06-12T23:34:16.663Z,45.83
2018-06-12T23:36:44.389Z,46.52
2018-06-12T23:39:12.072Z,46.66
2018-06-12T23:41:39.753Z,46.05
2018-06-12T23:44:07.430Z,46.25
2018-06-12T23:46:35.073Z,46.19
2018-06-12T23:49:02.742Z,46.78
2018-06-12T23:51:30.409Z,46.52
2018-06-12T23:53:58.093Z,46.51
2018-06-12T23:56:25.828Z,47.31
2018-06-12T23:58:53.593Z,47.38
